sensor_id;sensor_type;location;lat;lon;timestamp;temperature;humidity
5134;DHT22;2585;48.696;10.066;2023-02-01T00:01:10;1.90;94.80
5134;DHT22;2585;48.696;10.066;2023-02-01T00:03:36;2.00;94.80
5134;DHT22;2585;48.696;10.066;2023-02-01T00:06:03;2.00;94.80
5134;DHT22;2585;48.696;10.066;2023-02-01T00:08:30;1.90;94.80
5134;DHT22;2585;48.696;10.066;2023-02-01T00:10:58;2.00;94.80
5134;DHT22;2585;48.696;10.066;2023-02-01T00:13:28;2.00;94.80
5134;DHT22;2585;48.696;10.066;2023-02-01T00:15:55;2.00;94.80
5134;DHT22;2585;48.696;10.066;2023-02-01T00:18:28;2.00;94.80
5134;DHT22;2585;48.696;10.066;2023-02-01T00:20:54;2.10;94.80
5134;DHT22;2585;48.696;10.066;2023-02-01T00:23:21;2.10;94.80
5134;DHT22;2585;48.696;10.066;2023-02-01T00:25:48;2.10;94.70
5134;DHT22;2585;48.696;10.066;2023-02-01T00:28:15;2.10;94.70
5134;DHT22;2585;48.696;10.066;2023-02-01T00:30:41;2.10;94.70
5134;DHT22;2585;48.696;10.066;2023-02-01T00:33:08;2.10;94.70
5134;DHT22;2585;48.696;10.066;2023-02-01T00:35:35;2.10;94.70
5134;DHT22;2585;48.696;10.066;2023-02-01T00:38:02;2.10;94.70
5134;DHT22;2585;48.696;10.066;2023-02-01T00:40:29;2.10;94.70
5134;DHT22;2585;48.696;10.066;2023-02-01T00:42:56;2.10;94.70
5134;DHT22;2585;48.696;10.066;2023-02-01T00:45:24;2.20;94.80
5134;DHT22;2585;48.696;10.066;2023-02-01T00:47:51;2.20;94.80
5134;DHT22;2585;48.696;10.066;2023-02-01T00:50:17;2.20;94.70
5134;DHT22;2585;48.696;10.066;2023-02-01T00:52:45;2.20;94.70
5134;DHT22;2585;48.696;10.066;2023-02-01T00:55:11;2.20;94.70
5134;DHT22;2585;48.696;10.066;2023-02-01T00:57:38;2.20;94.70
5134;DHT22;2585;48.696;10.066;2023-02-01T01:00:05;2.20;94.70
5134;DHT22;2585;48.696;10.066;2023-02-01T01:02:32;2.30;94.70
5134;DHT22;2585;48.696;10.066;2023-02-01T01:04:59;2.20;94.70
5134;DHT22;2585;48.696;10.066;2023-02-01T01:07:27;2.20;94.70
5134;DHT22;2585;48.696;10.066;2023-02-01T01:09:54;2.20;94.70
5134;DHT22;2585;48.696;10.066;2023-02-01T01:12:21;2.20;94.70
5134;DHT22;2585;48.696;10.066;2023-02-01T01:14:48;2.20;94.70
5134;DHT22;2585;48.696;10.066;2023-02-01T01:17:15;2.30;94.70
5134;DHT22;2585;48.696;10.066;2023-02-01T01:19:41;2.20;94.70
5134;DHT22;2585;48.696;10.066;2023-02-01T01:22:08;2.30;94.70
5134;DHT22;2585;48.696;10.066;2023-02-01T01:24:35;2.30;94.70
5134;DHT22;2585;48.696;10.066;2023-02-01T01:27:02;2.30;94.70
5134;DHT22;2585;48.696;10.066;2023-02-01T01:29:29;2.30;94.70
5134;DHT22;2585;48.696;10.066;2023-02-01T01:31:56;2.30;94.70
5134;DHT22;2585;48.696;10.066;2023-02-01T01:34:23;2.30;94.70
5134;DHT22;2585;48.696;10.066;2023-02-01T01:36:49;2.20;94.70
5134;DHT22;2585;48.696;10.066;2023-02-01T01:39:16;2.30;94.70
5134;DHT22;2585;48.696;10.066;2023-02-01T01:41:42;2.30;94.70
5134;DHT22;2585;48.696;10.066;2023-02-01T01:47:15;2.30;94.70
5134;DHT22;2585;48.696;10.066;2023-02-01T01:49:42;2.40;94.70
5134;DHT22;2585;48.696;10.066;2023-02-01T01:52:10;2.40;94.60
5134;DHT22;2585;48.696;10.066;2023-02-01T01:54:40;2.40;94.60
5134;DHT22;2585;48.696;10.066;2023-02-01T01:57:14;2.40;94.60
5134;DHT22;2585;48.696;10.066;2023-02-01T01:59:48;2.40;94.60
5134;DHT22;2585;48.696;10.066;2023-02-01T02:02:16;2.40;94.50
5134;DHT22;2585;48.696;10.066;2023-02-01T02:04:44;2.50;94.60
5134;DHT22;2585;48.696;10.066;2023-02-01T02:07:17;2.40;94.50
5134;DHT22;2585;48.696;10.066;2023-02-01T02:09:46;2.50;94.50
5134;DHT22;2585;48.696;10.066;2023-02-01T02:12:26;2.50;94.50
5134;DHT22;2585;48.696;10.066;2023-02-01T02:14:53;2.50;94.50
5134;DHT22;2585;48.696;10.066;2023-02-01T02:25:46;2.60;94.40
5134;DHT22;2585;48.696;10.066;2023-02-01T02:34:26;2.50;94.30
5134;DHT22;2585;48.696;10.066;2023-02-01T02:40:04;2.50;94.30
5134;DHT22;2585;48.696;10.066;2023-02-01T02:42:47;2.50;94.20
5134;DHT22;2585;48.696;10.066;2023-02-01T02:45:41;2.50;94.20
5134;DHT22;2585;48.696;10.066;2023-02-01T02:51:08;2.60;94.00
5134;DHT22;2585;48.696;10.066;2023-02-01T02:54:05;2.60;94.00
5134;DHT22;2585;48.696;10.066;2023-02-01T02:56:52;2.60;94.00
5134;DHT22;2585;48.696;10.066;2023-02-01T02:59:39;2.60;93.90
5134;DHT22;2585;48.696;10.066;2023-02-01T03:02:26;2.60;93.80
5134;DHT22;2585;48.696;10.066;2023-02-01T03:05:12;2.70;93.70
5134;DHT22;2585;48.696;10.066;2023-02-01T03:10:34;2.70;93.20
5134;DHT22;2585;48.696;10.066;2023-02-01T03:13:28;2.70;93.20
5134;DHT22;2585;48.696;10.066;2023-02-01T03:16:12;2.70;93.10
5134;DHT22;2585;48.696;10.066;2023-02-01T03:21:23;2.60;93.50
5134;DHT22;2585;48.696;10.066;2023-02-01T03:23:51;2.60;93.60
5134;DHT22;2585;48.696;10.066;2023-02-01T03:26:20;2.60;93.70
5134;DHT22;2585;48.696;10.066;2023-02-01T03:28:54;2.60;93.70
5134;DHT22;2585;48.696;10.066;2023-02-01T03:31:23;2.60;93.80
5134;DHT22;2585;48.696;10.066;2023-02-01T03:33:50;2.60;93.90
5134;DHT22;2585;48.696;10.066;2023-02-01T03:36:29;2.60;93.80
5134;DHT22;2585;48.696;10.066;2023-02-01T03:39:15;2.60;93.90
5134;DHT22;2585;48.696;10.066;2023-02-01T03:42:01;2.60;93.90
5134;DHT22;2585;48.696;10.066;2023-02-01T03:44:32;2.60;93.90
5134;DHT22;2585;48.696;10.066;2023-02-01T03:47:22;2.70;93.90
5134;DHT22;2585;48.696;10.066;2023-02-01T03:50:05;2.60;93.90
5134;DHT22;2585;48.696;10.066;2023-02-01T03:52:42;2.70;93.70
5134;DHT22;2585;48.696;10.066;2023-02-01T03:55:13;2.80;93.60
5134;DHT22;2585;48.696;10.066;2023-02-01T03:57:55;2.80;93.50
5134;DHT22;2585;48.696;10.066;2023-02-01T04:00:25;2.90;93.40
5134;DHT22;2585;48.696;10.066;2023-02-01T04:02:52;2.80;93.50
5134;DHT22;2585;48.696;10.066;2023-02-01T04:05:20;2.70;93.60
5134;DHT22;2585;48.696;10.066;2023-02-01T04:07:47;2.80;93.90
5134;DHT22;2585;48.696;10.066;2023-02-01T04:10:14;2.70;94.00
5134;DHT22;2585;48.696;10.066;2023-02-01T04:12:45;2.70;94.10
5134;DHT22;2585;48.696;10.066;2023-02-01T04:15:11;2.60;94.20
5134;DHT22;2585;48.696;10.066;2023-02-01T04:17:38;2.60;94.30
5134;DHT22;2585;48.696;10.066;2023-02-01T04:20:05;2.50;94.40
5134;DHT22;2585;48.696;10.066;2023-02-01T04:22:32;2.50;94.40
5134;DHT22;2585;48.696;10.066;2023-02-01T04:24:59;2.60;94.50
5134;DHT22;2585;48.696;10.066;2023-02-01T04:27:26;2.60;94.40
5134;DHT22;2585;48.696;10.066;2023-02-01T04:29:53;2.60;94.40
5134;DHT22;2585;48.696;10.066;2023-02-01T04:32:23;2.70;94.30
5134;DHT22;2585;48.696;10.066;2023-02-01T04:34:49;2.60;94.30
5134;DHT22;2585;48.696;10.066;2023-02-01T04:37:16;2.60;94.30
5134;DHT22;2585;48.696;10.066;2023-02-01T04:39:43;2.70;94.30
5134;DHT22;2585;48.696;10.066;2023-02-01T04:42:10;2.60;94.20
5134;DHT22;2585;48.696;10.066;2023-02-01T04:44:36;2.60;94.20
5134;DHT22;2585;48.696;10.066;2023-02-01T04:47:05;2.60;94.20
5134;DHT22;2585;48.696;10.066;2023-02-01T04:49:32;2.70;94.30
5134;DHT22;2585;48.696;10.066;2023-02-01T04:52:00;2.70;94.20
5134;DHT22;2585;48.696;10.066;2023-02-01T04:54:26;2.70;94.10
5134;DHT22;2585;48.696;10.066;2023-02-01T04:56:53;2.70;94.00
5134;DHT22;2585;48.696;10.066;2023-02-01T04:59:20;2.70;94.00
5134;DHT22;2585;48.696;10.066;2023-02-01T05:01:47;2.70;94.00
5134;DHT22;2585;48.696;10.066;2023-02-01T05:04:14;2.80;93.90
5134;DHT22;2585;48.696;10.066;2023-02-01T05:06:41;2.80;93.80
5134;DHT22;2585;48.696;10.066;2023-02-01T05:09:08;2.80;93.60
5134;DHT22;2585;48.696;10.066;2023-02-01T05:11:34;2.70;93.60
5134;DHT22;2585;48.696;10.066;2023-02-01T05:14:20;2.80;93.30
5134;DHT22;2585;48.696;10.066;2023-02-01T05:16:47;2.80;93.10
5134;DHT22;2585;48.696;10.066;2023-02-01T05:19:14;2.70;93.00
5134;DHT22;2585;48.696;10.066;2023-02-01T05:21:40;2.80;92.60
5134;DHT22;2585;48.696;10.066;2023-02-01T05:24:08;2.70;92.30
5134;DHT22;2585;48.696;10.066;2023-02-01T05:26:46;2.70;92.40
5134;DHT22;2585;48.696;10.066;2023-02-01T05:29:15;2.70;91.90
5134;DHT22;2585;48.696;10.066;2023-02-01T05:31:44;2.70;91.80
5134;DHT22;2585;48.696;10.066;2023-02-01T05:34:12;2.70;91.90
5134;DHT22;2585;48.696;10.066;2023-02-01T05:36:39;2.80;91.50
5134;DHT22;2585;48.696;10.066;2023-02-01T05:39:06;2.90;90.50
5134;DHT22;2585;48.696;10.066;2023-02-01T05:41:33;2.90;90.40
5134;DHT22;2585;48.696;10.066;2023-02-01T05:44:00;2.90;90.70
5134;DHT22;2585;48.696;10.066;2023-02-01T05:46:26;2.80;91.40
5134;DHT22;2585;48.696;10.066;2023-02-01T05:48:53;2.90;91.40
5134;DHT22;2585;48.696;10.066;2023-02-01T05:51:22;2.90;90.70
5134;DHT22;2585;48.696;10.066;2023-02-01T05:53:49;2.90;90.40
5134;DHT22;2585;48.696;10.066;2023-02-01T05:56:16;2.90;89.60
5134;DHT22;2585;48.696;10.066;2023-02-01T05:58:43;2.90;89.10
5134;DHT22;2585;48.696;10.066;2023-02-01T06:01:09;2.80;90.40
5134;DHT22;2585;48.696;10.066;2023-02-01T06:03:37;2.90;90.10
5134;DHT22;2585;48.696;10.066;2023-02-01T06:06:04;2.90;89.80
5134;DHT22;2585;48.696;10.066;2023-02-01T06:08:31;3.00;89.10
5134;DHT22;2585;48.696;10.066;2023-02-01T06:11:03;3.00;87.90
5134;DHT22;2585;48.696;10.066;2023-02-01T06:13:31;2.90;89.70
5134;DHT22;2585;48.696;10.066;2023-02-01T06:16:04;3.00;89.20
5134;DHT22;2585;48.696;10.066;2023-02-01T06:18:34;3.00;89.00
5134;DHT22;2585;48.696;10.066;2023-02-01T06:21:01;3.00;87.00
5134;DHT22;2585;48.696;10.066;2023-02-01T06:23:29;3.00;87.70
5134;DHT22;2585;48.696;10.066;2023-02-01T06:26:04;3.00;88.70
5134;DHT22;2585;48.696;10.066;2023-02-01T06:28:32;3.00;90.00
5134;DHT22;2585;48.696;10.066;2023-02-01T06:31:06;3.00;90.00
5134;DHT22;2585;48.696;10.066;2023-02-01T06:33:34;3.00;88.80
5134;DHT22;2585;48.696;10.066;2023-02-01T06:36:04;3.00;87.80
5134;DHT22;2585;48.696;10.066;2023-02-01T06:38:32;3.00;86.80
5134;DHT22;2585;48.696;10.066;2023-02-01T06:41:01;3.00;84.60
5134;DHT22;2585;48.696;10.066;2023-02-01T06:43:29;3.00;83.70
5134;DHT22;2585;48.696;10.066;2023-02-01T06:46:04;3.00;82.00
5134;DHT22;2585;48.696;10.066;2023-02-01T06:48:31;3.00;80.80
5134;DHT22;2585;48.696;10.066;2023-02-01T06:50:59;3.00;82.10
5134;DHT22;2585;48.696;10.066;2023-02-01T06:53:26;3.00;82.00
5134;DHT22;2585;48.696;10.066;2023-02-01T06:56:00;3.00;83.90
5134;DHT22;2585;48.696;10.066;2023-02-01T06:58:31;3.00;84.90
5134;DHT22;2585;48.696;10.066;2023-02-01T07:01:05;3.00;87.10
5134;DHT22;2585;48.696;10.066;2023-02-01T07:03:32;3.00;90.10
5134;DHT22;2585;48.696;10.066;2023-02-01T07:05:59;2.90;91.10
5134;DHT22;2585;48.696;10.066;2023-02-01T07:08:33;2.90;91.50
5134;DHT22;2585;48.696;10.066;2023-02-01T07:11:04;2.90;92.10
5134;DHT22;2585;48.696;10.066;2023-02-01T07:13:32;2.90;92.50
5134;DHT22;2585;48.696;10.066;2023-02-01T07:16:03;2.90;92.70
5134;DHT22;2585;48.696;10.066;2023-02-01T07:18:31;2.90;92.60
5134;DHT22;2585;48.696;10.066;2023-02-01T07:20:59;2.90;92.40
5134;DHT22;2585;48.696;10.066;2023-02-01T07:23:26;2.90;92.60
5134;DHT22;2585;48.696;10.066;2023-02-01T07:25:55;3.00;92.50
5134;DHT22;2585;48.696;10.066;2023-02-01T07:28:23;3.00;92.60
5134;DHT22;2585;48.696;10.066;2023-02-01T07:30:50;3.00;92.50
5134;DHT22;2585;48.696;10.066;2023-02-01T07:33:21;3.00;92.50
5134;DHT22;2585;48.696;10.066;2023-02-01T07:35:49;2.90;92.50
5134;DHT22;2585;48.696;10.066;2023-02-01T07:38:19;2.90;92.60
5134;DHT22;2585;48.696;10.066;2023-02-01T07:40:48;3.00;92.60
5134;DHT22;2585;48.696;10.066;2023-02-01T07:43:15;2.90;92.60
5134;DHT22;2585;48.696;10.066;2023-02-01T07:45:42;2.90;92.50
5134;DHT22;2585;48.696;10.066;2023-02-01T07:48:09;3.00;92.20
5134;DHT22;2585;48.696;10.066;2023-02-01T07:50:36;3.00;92.10
5134;DHT22;2585;48.696;10.066;2023-02-01T07:53:03;3.00;92.50
5134;DHT22;2585;48.696;10.066;2023-02-01T07:55:30;2.90;92.70
5134;DHT22;2585;48.696;10.066;2023-02-01T07:57:57;3.00;92.70
5134;DHT22;2585;48.696;10.066;2023-02-01T08:00:26;3.00;92.90
5134;DHT22;2585;48.696;10.066;2023-02-01T08:03:11;3.10;93.40
5134;DHT22;2585;48.696;10.066;2023-02-01T08:05:37;3.00;93.70
5134;DHT22;2585;48.696;10.066;2023-02-01T08:08:05;3.00;94.10
5134;DHT22;2585;48.696;10.066;2023-02-01T08:10:32;2.90;94.20
5134;DHT22;2585;48.696;10.066;2023-02-01T08:13:02;2.90;94.10
5134;DHT22;2585;48.696;10.066;2023-02-01T08:15:29;2.90;94.20
5134;DHT22;2585;48.696;10.066;2023-02-01T08:17:56;2.80;94.30
5134;DHT22;2585;48.696;10.066;2023-02-01T08:20:25;2.80;94.40
5134;DHT22;2585;48.696;10.066;2023-02-01T08:22:55;2.80;94.40
5134;DHT22;2585;48.696;10.066;2023-02-01T08:25:22;2.80;94.50
5134;DHT22;2585;48.696;10.066;2023-02-01T08:27:50;2.80;94.50
5134;DHT22;2585;48.696;10.066;2023-02-01T08:30:17;2.80;94.40
5134;DHT22;2585;48.696;10.066;2023-02-01T08:32:44;2.80;94.40
5134;DHT22;2585;48.696;10.066;2023-02-01T08:35:11;2.80;94.30
5134;DHT22;2585;48.696;10.066;2023-02-01T08:37:37;2.90;94.40
5134;DHT22;2585;48.696;10.066;2023-02-01T08:40:05;2.90;94.30
5134;DHT22;2585;48.696;10.066;2023-02-01T08:42:32;2.90;94.30
5134;DHT22;2585;48.696;10.066;2023-02-01T08:45:19;2.90;94.20
5134;DHT22;2585;48.696;10.066;2023-02-01T08:47:53;2.90;94.20
5134;DHT22;2585;48.696;10.066;2023-02-01T08:50:21;2.90;94.10
5134;DHT22;2585;48.696;10.066;2023-02-01T08:52:49;2.90;94.00
5134;DHT22;2585;48.696;10.066;2023-02-01T08:55:16;2.90;93.90
5134;DHT22;2585;48.696;10.066;2023-02-01T08:57:43;3.00;93.50
5134;DHT22;2585;48.696;10.066;2023-02-01T09:00:16;3.10;92.80
5134;DHT22;2585;48.696;10.066;2023-02-01T09:02:43;3.30;92.00
5134;DHT22;2585;48.696;10.066;2023-02-01T09:05:10;3.30;85.10
5134;DHT22;2585;48.696;10.066;2023-02-01T09:07:37;3.40;77.30
5134;DHT22;2585;48.696;10.066;2023-02-01T09:10:05;3.40;75.10
5134;DHT22;2585;48.696;10.066;2023-02-01T09:12:33;3.30;76.50
5134;DHT22;2585;48.696;10.066;2023-02-01T09:15:00;3.30;78.60
5134;DHT22;2585;48.696;10.066;2023-02-01T09:17:28;3.30;76.60
5134;DHT22;2585;48.696;10.066;2023-02-01T09:19:55;3.40;75.30
5134;DHT22;2585;48.696;10.066;2023-02-01T09:22:22;3.40;73.00
5134;DHT22;2585;48.696;10.066;2023-02-01T09:24:49;3.40;73.30
5134;DHT22;2585;48.696;10.066;2023-02-01T09:27:16;3.40;76.00
5134;DHT22;2585;48.696;10.066;2023-02-01T09:29:42;3.40;73.80
5134;DHT22;2585;48.696;10.066;2023-02-01T09:32:10;3.50;73.00
5134;DHT22;2585;48.696;10.066;2023-02-01T09:34:36;3.60;69.00
5134;DHT22;2585;48.696;10.066;2023-02-01T09:37:03;3.70;68.70
5134;DHT22;2585;48.696;10.066;2023-02-01T09:39:30;3.70;66.10
5134;DHT22;2585;48.696;10.066;2023-02-01T09:47:43;3.90;63.60
5134;DHT22;2585;48.696;10.066;2023-02-01T09:50:16;3.90;60.50
5134;DHT22;2585;48.696;10.066;2023-02-01T09:53:10;4.00;57.30
5134;DHT22;2585;48.696;10.066;2023-02-01T10:00:52;4.10;44.90
5134;DHT22;2585;48.696;10.066;2023-02-01T10:03:20;4.00;48.80
5134;DHT22;2585;48.696;10.066;2023-02-01T10:22:25;3.70;61.70
5134;DHT22;2585;48.696;10.066;2023-02-01T10:28:18;3.50;60.30
5134;DHT22;2585;48.696;10.066;2023-02-01T10:30:47;3.50;53.20
5134;DHT22;2585;48.696;10.066;2023-02-01T10:33:24;3.50;54.00
5134;DHT22;2585;48.696;10.066;2023-02-01T10:36:05;3.50;52.70
5134;DHT22;2585;48.696;10.066;2023-02-01T10:38:35;3.40;60.30
5134;DHT22;2585;48.696;10.066;2023-02-01T10:41:09;3.50;62.70
5134;DHT22;2585;48.696;10.066;2023-02-01T10:43:38;3.40;61.70
5134;DHT22;2585;48.696;10.066;2023-02-01T10:46:07;3.40;62.70
5134;DHT22;2585;48.696;10.066;2023-02-01T10:48:35;3.40;62.00
5134;DHT22;2585;48.696;10.066;2023-02-01T10:51:10;3.40;64.10
5134;DHT22;2585;48.696;10.066;2023-02-01T10:53:48;3.50;65.40
5134;DHT22;2585;48.696;10.066;2023-02-01T10:56:23;3.40;64.60
5134;DHT22;2585;48.696;10.066;2023-02-01T10:58:50;3.40;65.80
5134;DHT22;2585;48.696;10.066;2023-02-01T11:01:21;3.40;66.00
5134;DHT22;2585;48.696;10.066;2023-02-01T11:03:52;3.40;62.80
5134;DHT22;2585;48.696;10.066;2023-02-01T11:08:58;3.50;62.00
5134;DHT22;2585;48.696;10.066;2023-02-01T11:11:25;3.50;60.60
5134;DHT22;2585;48.696;10.066;2023-02-01T11:13:55;3.60;55.00
5134;DHT22;2585;48.696;10.066;2023-02-01T11:16:31;3.60;56.80
5134;DHT22;2585;48.696;10.066;2023-02-01T11:18:59;3.70;52.20
5134;DHT22;2585;48.696;10.066;2023-02-01T11:21:26;3.80;47.60
5134;DHT22;2585;48.696;10.066;2023-02-01T11:23:54;3.90;44.70
5134;DHT22;2585;48.696;10.066;2023-02-01T11:26:24;4.00;42.20
5134;DHT22;2585;48.696;10.066;2023-02-01T11:28:57;4.00;35.30
5134;DHT22;2585;48.696;10.066;2023-02-01T11:31:26;4.00;36.90
5134;DHT22;2585;48.696;10.066;2023-02-01T11:34:08;4.00;32.50
5134;DHT22;2585;48.696;10.066;2023-02-01T11:36:38;3.90;32.50
5134;DHT22;2585;48.696;10.066;2023-02-01T11:44:33;3.70;37.70
5134;DHT22;2585;48.696;10.066;2023-02-01T11:47:20;3.70;33.80
5134;DHT22;2585;48.696;10.066;2023-02-01T11:49:48;3.70;35.30
5134;DHT22;2585;48.696;10.066;2023-02-01T12:00:57;3.60;24.90
5134;DHT22;2585;48.696;10.066;2023-02-01T12:03:53;3.60;25.70
5134;DHT22;2585;48.696;10.066;2023-02-01T12:12:54;3.60;26.60
5134;DHT22;2585;48.696;10.066;2023-02-01T12:15:26;3.60;21.80
5134;DHT22;2585;48.696;10.066;2023-02-01T12:21:02;3.90;21.30
5134;DHT22;2585;48.696;10.066;2023-02-01T12:29:35;3.80;19.90
5134;DHT22;2585;48.696;10.066;2023-02-01T12:35:02;3.70;20.90
5134;DHT22;2585;48.696;10.066;2023-02-01T12:43:36;3.70;18.90
5134;DHT22;2585;48.696;10.066;2023-02-01T12:46:30;3.70;19.40
5134;DHT22;2585;48.696;10.066;2023-02-01T12:57:40;3.80;15.70
5134;DHT22;2585;48.696;10.066;2023-02-01T13:00:44;3.90;15.20
5134;DHT22;2585;48.696;10.066;2023-02-01T13:03:33;3.90;14.60
5134;DHT22;2585;48.696;10.066;2023-02-01T13:06:18;3.90;13.20
5134;DHT22;2585;48.696;10.066;2023-02-01T13:08:56;3.80;12.40
5134;DHT22;2585;48.696;10.066;2023-02-01T13:11:33;3.80;13.40
5134;DHT22;2585;48.696;10.066;2023-02-01T13:16:31;3.80;14.80
5134;DHT22;2585;48.696;10.066;2023-02-01T13:19:10;3.70;12.10
5134;DHT22;2585;48.696;10.066;2023-02-01T13:21:43;3.70;13.10
5134;DHT22;2585;48.696;10.066;2023-02-01T13:25:00;3.70;12.90
5134;DHT22;2585;48.696;10.066;2023-02-01T13:27:30;3.70;13.60
5134;DHT22;2585;48.696;10.066;2023-02-01T13:30:17;3.70;12.90
5134;DHT22;2585;48.696;10.066;2023-02-01T13:33:12;3.60;14.30
5134;DHT22;2585;48.696;10.066;2023-02-01T13:42:05;3.50;15.90
5134;DHT22;2585;48.696;10.066;2023-02-01T13:44:49;3.50;16.20
5134;DHT22;2585;48.696;10.066;2023-02-01T13:49:55;3.50;17.00
5134;DHT22;2585;48.696;10.066;2023-02-01T13:52:42;3.50;15.70
5134;DHT22;2585;48.696;10.066;2023-02-01T13:57:50;3.50;17.30
5134;DHT22;2585;48.696;10.066;2023-02-01T14:00:35;3.50;17.40
5134;DHT22;2585;48.696;10.066;2023-02-01T14:13:40;3.40;29.30
5134;DHT22;2585;48.696;10.066;2023-02-01T14:16:15;3.40;28.50
5134;DHT22;2585;48.696;10.066;2023-02-01T14:32:05;3.40;22.50
5134;DHT22;2585;48.696;10.066;2023-02-01T14:34:54;3.40;18.90
5134;DHT22;2585;48.696;10.066;2023-02-01T14:37:33;3.50;17.40
5134;DHT22;2585;48.696;10.066;2023-02-01T14:42:51;3.50;16.80
5134;DHT22;2585;48.696;10.066;2023-02-01T14:47:53;3.40;16.30
5134;DHT22;2585;48.696;10.066;2023-02-01T14:55:40;3.40;17.20
5134;DHT22;2585;48.696;10.066;2023-02-01T15:03:55;3.30;17.10
5134;DHT22;2585;48.696;10.066;2023-02-01T15:06:30;3.30;18.90
5134;DHT22;2585;48.696;10.066;2023-02-01T15:09:19;3.30;20.90
5134;DHT22;2585;48.696;10.066;2023-02-01T15:15:14;3.30;21.10
5134;DHT22;2585;48.696;10.066;2023-02-01T15:17:58;3.30;22.40
5134;DHT22;2585;48.696;10.066;2023-02-01T15:20:31;3.30;22.70
5134;DHT22;2585;48.696;10.066;2023-02-01T15:23:02;3.20;21.70
5134;DHT22;2585;48.696;10.066;2023-02-01T15:25:34;3.20;20.20
5134;DHT22;2585;48.696;10.066;2023-02-01T15:28:03;3.20;22.60
5134;DHT22;2585;48.696;10.066;2023-02-01T15:30:33;3.20;23.00
5134;DHT22;2585;48.696;10.066;2023-02-01T15:33:16;3.20;23.60
5134;DHT22;2585;48.696;10.066;2023-02-01T15:35:55;3.20;23.60
5134;DHT22;2585;48.696;10.066;2023-02-01T15:38:35;3.20;24.50
5134;DHT22;2585;48.696;10.066;2023-02-01T15:41:13;3.20;25.20
5134;DHT22;2585;48.696;10.066;2023-02-01T15:43:43;3.10;25.00
5134;DHT22;2585;48.696;10.066;2023-02-01T15:46:14;3.10;26.50
5134;DHT22;2585;48.696;10.066;2023-02-01T15:48:50;3.10;27.90
5134;DHT22;2585;48.696;10.066;2023-02-01T15:51:21;3.10;32.60
5134;DHT22;2585;48.696;10.066;2023-02-01T15:53:55;3.00;40.60
5134;DHT22;2585;48.696;10.066;2023-02-01T15:56:25;3.00;45.80
5134;DHT22;2585;48.696;10.066;2023-02-01T15:58:56;3.00;49.10
5134;DHT22;2585;48.696;10.066;2023-02-01T16:01:24;3.00;47.90
5134;DHT22;2585;48.696;10.066;2023-02-01T16:06:54;3.00;51.70
5134;DHT22;2585;48.696;10.066;2023-02-01T16:09:24;3.00;44.50
5134;DHT22;2585;48.696;10.066;2023-02-01T16:11:59;3.00;46.90
5134;DHT22;2585;48.696;10.066;2023-02-01T16:14:27;3.00;50.00
5134;DHT22;2585;48.696;10.066;2023-02-01T16:16:57;3.00;46.60
5134;DHT22;2585;48.696;10.066;2023-02-01T16:19:24;3.00;44.70
5134;DHT22;2585;48.696;10.066;2023-02-01T16:21:57;3.00;48.30
5134;DHT22;2585;48.696;10.066;2023-02-01T16:24:25;3.00;45.90
5134;DHT22;2585;48.696;10.066;2023-02-01T16:26:52;3.00;45.20
5134;DHT22;2585;48.696;10.066;2023-02-01T16:29:19;3.00;43.00
5134;DHT22;2585;48.696;10.066;2023-02-01T16:31:48;3.10;41.70
5134;DHT22;2585;48.696;10.066;2023-02-01T16:34:16;3.00;41.50
5134;DHT22;2585;48.696;10.066;2023-02-01T16:36:46;3.00;40.50
5134;DHT22;2585;48.696;10.066;2023-02-01T16:39:19;3.00;40.30
5134;DHT22;2585;48.696;10.066;2023-02-01T16:41:47;3.10;37.80
5134;DHT22;2585;48.696;10.066;2023-02-01T16:44:13;3.00;39.10
5134;DHT22;2585;48.696;10.066;2023-02-01T16:46:42;3.00;38.70
5134;DHT22;2585;48.696;10.066;2023-02-01T16:49:30;3.10;38.80
5134;DHT22;2585;48.696;10.066;2023-02-01T16:51:58;3.10;37.80
5134;DHT22;2585;48.696;10.066;2023-02-01T16:54:25;3.10;39.80
5134;DHT22;2585;48.696;10.066;2023-02-01T16:56:53;3.00;42.00
5134;DHT22;2585;48.696;10.066;2023-02-01T16:59:20;3.00;39.20
5134;DHT22;2585;48.696;10.066;2023-02-01T17:01:47;3.00;40.10
5134;DHT22;2585;48.696;10.066;2023-02-01T17:04:14;3.00;38.30
5134;DHT22;2585;48.696;10.066;2023-02-01T17:06:43;3.10;36.30
5134;DHT22;2585;48.696;10.066;2023-02-01T17:09:13;3.10;34.60
5134;DHT22;2585;48.696;10.066;2023-02-01T17:11:40;3.10;34.00
5134;DHT22;2585;48.696;10.066;2023-02-01T17:14:19;3.10;33.80
5134;DHT22;2585;48.696;10.066;2023-02-01T17:16:49;3.00;34.20
5134;DHT22;2585;48.696;10.066;2023-02-01T17:19:19;3.10;32.90
5134;DHT22;2585;48.696;10.066;2023-02-01T17:21:54;3.10;32.70
5134;DHT22;2585;48.696;10.066;2023-02-01T17:24:24;3.10;31.50
5134;DHT22;2585;48.696;10.066;2023-02-01T17:26:54;3.10;29.50
5134;DHT22;2585;48.696;10.066;2023-02-01T17:29:21;3.10;30.00
5134;DHT22;2585;48.696;10.066;2023-02-01T17:31:53;3.10;27.60
5134;DHT22;2585;48.696;10.066;2023-02-01T17:34:21;3.00;28.60
5134;DHT22;2585;48.696;10.066;2023-02-01T17:36:48;3.00;29.50
5134;DHT22;2585;48.696;10.066;2023-02-01T17:39:15;3.00;30.60
5134;DHT22;2585;48.696;10.066;2023-02-01T17:42:03;2.90;30.00
5134;DHT22;2585;48.696;10.066;2023-02-01T17:44:30;3.00;27.70
5134;DHT22;2585;48.696;10.066;2023-02-01T17:46:57;3.00;27.70
5134;DHT22;2585;48.696;10.066;2023-02-01T17:49:25;3.00;28.70
5134;DHT22;2585;48.696;10.066;2023-02-01T17:51:55;3.00;28.60
5134;DHT22;2585;48.696;10.066;2023-02-01T17:54:25;3.00;26.70
5134;DHT22;2585;48.696;10.066;2023-02-01T17:56:52;3.00;25.60
5134;DHT22;2585;48.696;10.066;2023-02-01T17:59:19;3.00;24.10
5134;DHT22;2585;48.696;10.066;2023-02-01T18:01:45;3.10;23.10
5134;DHT22;2585;48.696;10.066;2023-02-01T18:04:15;3.10;23.00
5134;DHT22;2585;48.696;10.066;2023-02-01T18:06:42;3.10;22.40
5134;DHT22;2585;48.696;10.066;2023-02-01T18:09:10;3.10;22.10
5134;DHT22;2585;48.696;10.066;2023-02-01T18:11:37;3.10;20.60
5134;DHT22;2585;48.696;10.066;2023-02-01T18:14:04;3.10;20.30
5134;DHT22;2585;48.696;10.066;2023-02-01T18:16:32;3.10;19.70
5134;DHT22;2585;48.696;10.066;2023-02-01T18:18:59;3.10;17.50
5134;DHT22;2585;48.696;10.066;2023-02-01T18:21:44;3.10;17.40
5134;DHT22;2585;48.696;10.066;2023-02-01T18:24:15;3.20;16.30
5134;DHT22;2585;48.696;10.066;2023-02-01T18:26:42;3.20;15.00
5134;DHT22;2585;48.696;10.066;2023-02-01T18:29:09;3.20;15.00
5134;DHT22;2585;48.696;10.066;2023-02-01T18:31:43;3.10;15.90
5134;DHT22;2585;48.696;10.066;2023-02-01T18:34:10;3.20;15.20
5134;DHT22;2585;48.696;10.066;2023-02-01T18:36:42;3.20;14.30
5134;DHT22;2585;48.696;10.066;2023-02-01T18:39:09;3.30;14.90
5134;DHT22;2585;48.696;10.066;2023-02-01T18:41:37;3.30;14.40
5134;DHT22;2585;48.696;10.066;2023-02-01T18:44:04;3.20;15.40
5134;DHT22;2585;48.696;10.066;2023-02-01T18:46:30;3.20;14.80
5134;DHT22;2585;48.696;10.066;2023-02-01T18:48:57;3.30;13.50
5134;DHT22;2585;48.696;10.066;2023-02-01T18:51:24;3.30;13.90
5134;DHT22;2585;48.696;10.066;2023-02-01T18:53:50;3.30;13.90
5134;DHT22;2585;48.696;10.066;2023-02-01T18:56:17;3.30;14.00
5134;DHT22;2585;48.696;10.066;2023-02-01T18:58:44;3.30;13.80
5134;DHT22;2585;48.696;10.066;2023-02-01T19:01:19;3.30;14.30
5134;DHT22;2585;48.696;10.066;2023-02-01T19:03:48;3.30;14.90
5134;DHT22;2585;48.696;10.066;2023-02-01T19:06:24;3.30;14.80
5134;DHT22;2585;48.696;10.066;2023-02-01T19:08:51;3.20;15.60
5134;DHT22;2585;48.696;10.066;2023-02-01T19:11:21;3.30;14.70
5134;DHT22;2585;48.696;10.066;2023-02-01T19:13:49;3.30;14.80
5134;DHT22;2585;48.696;10.066;2023-02-01T19:16:16;3.30;14.70